Time;durP1;ratioP1;P1;durP2;ratioP2;P2;SDS_P1;SDS_P2;PMS_P1;PMS_P2;Temp;Humidity;BMP_temperature;BMP_pressure;BME280_temperature;BME280_humidity;BME280_pressure;Samples;Min_cycle;Max_cycle;Signal;HPM_P1;HPM_P2
2022/09/11 00:01:12;;;;;;;27.77;15.43;;;;;;;;;;5031003;28;20216;-77
2022/09/11 00:03:41;;;;;;;32.77;16.00;;;;;;;;;;5028073;28;20965;-76
2022/09/11 00:06:10;;;;;;;29.97;15.67;;;;;;;;;;5026798;28;20718;-77
2022/09/11 00:08:37;;;;;;;30.33;15.40;;;;;;;;;;5025620;28;20235;-77
2022/09/11 00:11:06;;;;;;;27.07;15.37;;;;;;;;;;5026670;28;20211;-78
2022/09/11 00:13:35;;;;;;;27.13;15.57;;;;;;;;;;5025959;28;20203;-77
2022/09/11 00:16:04;;;;;;;28.07;15.90;;;;;;;;;;5024665;28;20207;-78
2022/09/11 00:18:34;;;;;;;26.63;14.97;;;;;;;;;;5026489;28;20223;-77
2022/09/11 00:21:02;;;;;;;28.53;15.47;;;;;;;;;;5028130;28;20286;-77
2022/09/11 00:23:30;;;;;;;29.20;15.77;;;;;;;;;;5018708;28;20655;-77
2022/09/11 00:26:01;;;;;;;33.53;15.57;;;;;;;;;;5016804;28;20604;-77
2022/09/11 00:28:28;;;;;;;29.87;15.83;;;;;;;;;;5016958;28;20235;-76
2022/09/11 00:31:00;;;;;;;27.00;15.60;;;;;;;;;;5021057;28;20670;-77
2022/09/11 00:33:28;;;;;;;26.97;15.17;;;;;;;;;;5024685;28;20674;-77
2022/09/11 00:35:57;;;;;;;29.83;15.63;;;;;;;;;;5026680;28;20206;-76
2022/09/11 00:38:24;;;;;;;26.73;14.73;;;;;;;;;;5024362;28;20698;-77
2022/09/11 00:40:51;;;;;;;26.87;14.67;;;;;;;;;;5024989;28;20214;-78
2022/09/11 00:43:18;;;;;;;33.77;15.87;;;;;;;;;;5029185;28;20269;-78
2022/09/11 00:45:46;;;;;;;33.80;15.43;;;;;;;;;;5027806;28;20224;-77
2022/09/11 00:48:16;;;;;;;28.03;15.60;;;;;;;;;;5024820;28;20727;-77
2022/09/11 00:50:44;;;;;;;33.30;15.90;;;;;;;;;;5023005;28;20208;-78
2022/09/11 00:53:13;;;;;;;31.30;16.20;;;;;;;;;;5028328;28;20436;-77
2022/09/11 00:55:42;;;;;;;32.90;16.87;;;;;;;;;;5024706;28;20866;-77
2022/09/11 00:58:11;;;;;;;29.57;16.53;;;;;;;;;;5027444;28;20223;-78
2022/09/11 01:00:40;;;;;;;28.77;15.20;;;;;;;;;;5027793;28;20250;-77
2022/09/11 01:03:07;;;;;;;33.80;16.00;;;;;;;;;;5026207;28;20670;-78
2022/09/11 01:05:37;;;;;;;34.80;16.47;;;;;;;;;;5026707;28;20227;-76
2022/09/11 01:08:05;;;;;;;29.73;16.23;;;;;;;;;;5025089;28;20608;-76
2022/09/11 01:10:37;;;;;;;32.63;16.80;;;;;;;;;;5023142;28;20199;-77
2022/09/11 01:13:09;;;;;;;39.53;16.03;;;;;;;;;;5026788;28;20199;-76
2022/09/11 01:15:39;;;;;;;30.63;15.57;;;;;;;;;;5025812;28;20207;-76
2022/09/11 01:18:11;;;;;;;30.70;15.73;;;;;;;;;;5026745;28;20230;-77
2022/09/11 01:20:47;;;;;;;31.03;16.17;;;;;;;;;;5023103;28;20597;-76
2022/09/11 01:23:48;;;;;;;38.23;15.83;;;;;;;;;;5030493;28;20209;-77
2022/09/11 01:26:31;;;;;;;30.00;15.47;;;;;;;;;;4929978;29;20274;-77
2022/09/11 01:29:03;;;;;;;29.90;14.73;;;;;;;;;;4930729;29;20224;-78
2022/09/11 01:31:31;;;;;;;28.67;14.97;;;;;;;;;;4987914;28;20204;-77
2022/09/11 01:34:00;;;;;;;31.33;15.70;;;;;;;;;;5028129;28;20658;-77
2022/09/11 01:36:29;;;;;;;31.73;16.13;;;;;;;;;;5028739;28;20202;-76
2022/09/11 01:38:58;;;;;;;31.53;16.07;;;;;;;;;;5028475;28;20234;-77
2022/09/11 01:41:27;;;;;;;32.97;16.27;;;;;;;;;;5028406;28;20208;-77
2022/09/11 01:43:56;;;;;;;30.57;15.87;;;;;;;;;;5028311;28;20212;-77
2022/09/11 01:46:26;;;;;;;32.87;15.83;;;;;;;;;;5031188;28;20219;-75
2022/09/11 01:48:55;;;;;;;29.10;15.27;;;;;;;;;;5027553;28;21779;-76
2022/09/11 01:51:25;;;;;;;40.10;17.97;;;;;;;;;;5030503;28;20581;-76
2022/09/11 01:53:54;;;;;;;31.57;16.07;;;;;;;;;;5030452;28;20215;-76
2022/09/11 01:56:23;;;;;;;37.63;16.53;;;;;;;;;;5026307;28;20412;-75
2022/09/11 01:58:51;;;;;;;32.27;14.60;;;;;;;;;;5025080;28;20219;-75
2022/09/11 02:01:20;;;;;;;33.80;16.27;;;;;;;;;;5028669;28;20210;-77
2022/09/11 02:03:51;;;;;;;40.43;15.83;;;;;;;;;;5026511;28;20196;-76
2022/09/11 02:06:20;;;;;;;21.03;11.00;;;;;;;;;;5028999;28;20686;-75
2022/09/11 02:08:51;;;;;;;36.23;16.40;;;14.00;99.90;;;;;;5028710;28;20289;-77
2022/09/11 02:11:18;;;;;;;36.20;17.00;;;13.80;99.90;;;;;;5026679;28;20225;-77
2022/09/11 02:13:54;;;;;;;34.60;16.73;;;13.80;99.90;;;;;;5027336;28;20689;-76
2022/09/11 02:16:34;;;;;;;35.97;17.17;;;13.80;99.90;;;;;;5028450;28;20199;-75
2022/09/11 02:19:04;;;;;;;36.30;17.03;;;13.80;99.90;;;;;;5029755;28;20227;-77
2022/09/11 02:21:32;;;;;;;44.83;17.43;;;13.90;99.90;;;;;;5027229;28;20621;-77
2022/09/11 02:24:00;;;;;;;33.53;17.03;;;13.90;99.90;;;;;;5029948;28;20227;-77
2022/09/11 02:26:30;;;;;;;33.70;17.17;;;13.90;99.90;;;;;;5028733;28;20651;-77
2022/09/11 02:28:56;;;;;;;34.37;16.03;;;13.80;99.90;;;;;;5028775;28;20722;-77
2022/09/11 02:31:24;;;;;;;42.67;17.93;;;13.80;99.90;;;;;;5026705;28;20203;-75
2022/09/11 02:33:51;;;;;;;37.03;17.13;;;13.80;99.90;;;;;;5029968;28;20203;-77
2022/09/11 02:36:55;;;;;;;38.37;17.07;;;13.70;99.90;;;;;;5029904;28;20206;-77
2022/09/11 02:39:34;;;;;;;39.13;16.53;;;13.60;99.90;;;;;;4968197;28;20823;-77
2022/09/11 02:42:19;;;;;;;34.30;16.40;;;13.60;99.90;;;;;;5020236;28;20203;-77
2022/09/11 02:44:54;;;;;;;39.37;16.90;;;13.60;99.90;;;;;;5031434;28;20203;-75
2022/09/11 02:47:32;;;;;;;36.00;17.67;;;13.60;99.90;;;;;;5032082;28;20233;-75
2022/09/11 02:50:08;;;;;;;34.20;16.53;;;13.60;99.90;;;;;;5027272;28;20218;-76
2022/09/11 02:52:46;;;;;;;34.57;16.53;;;13.60;99.90;;;;;;5025903;28;20582;-76
2022/09/11 02:55:19;;;;;;;41.20;18.90;;;13.70;99.90;;;;;;5025267;28;20290;-76
2022/09/11 02:57:51;;;;;;;35.30;16.83;;;13.70;99.90;;;;;;5026585;28;20219;-77
2022/09/11 03:00:18;;;;;;;36.40;17.33;;;13.70;99.90;;;;;;5026017;28;20200;-77
2022/09/11 03:02:47;;;;;;;39.77;17.73;;;13.70;99.90;;;;;;5027725;28;20204;-77
2022/09/11 03:05:13;;;;;;;41.17;19.10;;;13.70;99.90;;;;;;5029904;28;20204;-77
2022/09/11 03:07:42;;;;;;;40.00;18.93;;;;;;;;;;5027951;28;20712;-77
2022/09/11 03:10:11;;;;;;;38.23;17.77;;;;;;;;;;5028016;28;20207;-77
2022/09/11 03:12:38;;;;;;;43.37;18.20;;;;;;;;;;5027254;28;20261;-76
2022/09/11 03:15:06;;;;;;;40.73;18.80;;;;;;;;;;5025009;28;20299;-77
2022/09/11 03:17:33;;;;;;;38.83;18.47;;;;;;;;;;5027581;28;20224;-76
2022/09/11 03:20:00;;;;;;;43.83;19.97;;;;;;;;;;5030137;28;20223;-76
2022/09/11 03:22:27;;;;;;;44.93;20.57;;;;;;;;;;5027975;28;20207;-77
2022/09/11 03:24:56;;;;;;;47.10;19.57;;;;;;;;;;5028351;28;20214;-77
2022/09/11 03:27:23;;;;;;;53.07;21.37;;;;;;;;;;5029294;28;20596;-77
2022/09/11 03:29:50;;;;;;;44.03;20.10;;;;;;;;;;5028320;28;20208;-77
2022/09/11 03:32:17;;;;;;;47.63;21.20;;;;;;;;;;5026739;28;20200;-77
2022/09/11 03:34:45;;;;;;;42.80;20.73;;;;;;;;;;5027509;28;20800;-77
2022/09/11 03:37:14;;;;;;;53.87;21.70;;;;;;;;;;5025958;28;20623;-77
2022/09/11 03:39:42;;;;;;;46.57;19.80;;;;;;;;;;5024850;28;20804;-77
2022/09/11 03:42:11;;;;;;;50.37;22.60;;;;;;;;;;5026102;28;20204;-76
2022/09/11 03:44:38;;;;;;;60.20;23.63;;;;;;;;;;5023708;28;20200;-77
2022/09/11 03:47:06;;;;;;;48.00;21.57;;;;;;;;;;5027724;28;20232;-76
2022/09/11 03:49:33;;;;;;;52.43;22.23;;;;;;;;;;5026093;28;20214;-77
2022/09/11 03:52:00;;;;;;;50.93;21.97;;;;;;;;;;5025165;28;20200;-77
2022/09/11 03:54:27;;;;;;;49.73;21.47;;;;;;;;;;5026506;28;20196;-76
2022/09/11 03:56:55;;;;;;;47.27;20.63;;;;;;;;;;5027885;28;20207;-77
2022/09/11 03:59:24;;;;;;;51.83;20.80;;;;;;;;;;5023770;28;20200;-76
2022/09/11 04:01:54;;;;;;;54.70;22.30;;;;;;;;;;5023704;28;20426;-77
2022/09/11 04:04:21;;;;;;;43.67;20.70;;;;;;;;;;5027564;28;20208;-76
2022/09/11 04:06:51;;;;;;;50.80;21.93;;;;;;;;;;5024862;28;20236;-77
2022/09/11 04:09:18;;;;;;;52.87;22.73;;;;;;;;;;5026591;28;20562;-77
2022/09/11 04:11:45;;;;;;;54.03;22.47;;;;;;;;;;5023324;28;20196;-76
2022/09/11 04:14:12;;;;;;;45.90;20.87;;;;;;;;;;5026164;28;20225;-77
2022/09/11 04:16:42;;;;;;;50.97;20.80;;;;;;;;;;5024498;28;20222;-76
2022/09/11 04:19:11;;;;;;;57.37;23.03;;;13.80;99.90;;;;;;5027495;28;20612;-77
2022/09/11 04:21:38;;;;;;;47.63;20.77;;;13.80;99.90;;;;;;5021439;28;20208;-75
2022/09/11 04:24:05;;;;;;;59.30;23.50;;;13.80;99.90;;;;;;5026527;28;20209;-76
2022/09/11 04:26:35;;;;;;;57.87;23.17;;;13.80;99.90;;;;;;5025528;28;20222;-76
2022/09/11 04:29:02;;;;;;;53.57;22.03;;;13.80;99.90;;;;;;5025184;28;20224;-76
2022/09/11 04:31:29;;;;;;;56.67;23.30;;;13.80;99.90;;;;;;5025220;28;20239;-77
2022/09/11 04:33:58;;;;;;;57.93;22.90;;;13.80;99.90;;;;;;5027506;28;20242;-76
2022/09/11 04:36:25;;;;;;;62.37;24.37;;;13.80;99.90;;;;;;5026430;28;20204;-77
2022/09/11 04:38:56;;;;;;;63.03;25.40;;;13.90;99.90;;;;;;5024441;28;20224;-76
2022/09/11 04:41:24;;;;;;;60.07;23.53;;;13.80;99.90;;;;;;5026396;28;20685;-76
2022/09/11 04:43:55;;;;;;;56.40;22.23;;;13.80;99.90;;;;;;5028544;28;20241;-77
2022/09/11 04:46:23;;;;;;;46.27;18.63;;;13.70;99.90;;;;;;5025667;28;20876;-76
2022/09/11 04:48:54;;;;;;;67.30;25.53;;;13.70;99.90;;;;;;5026932;28;20239;-77
2022/09/11 04:51:24;;;;;;;59.37;23.63;;;13.60;99.90;;;;;;5025093;28;20208;-75
2022/09/11 04:53:53;;;;;;;56.63;24.90;;;13.60;99.90;;;;;;5026154;28;20237;-76
2022/09/11 04:56:21;;;;;;;67.27;24.37;;;13.60;99.90;;;;;;5025725;28;20206;-77
2022/09/11 04:58:53;;;;;;;70.30;25.40;;;13.60;99.90;;;;;;5022402;28;20224;-77
2022/09/11 05:01:21;;;;;;;67.50;25.70;;;13.50;99.90;;;;;;5020385;28;20253;-76
2022/09/11 05:03:48;;;;;;;66.67;26.10;;;13.50;99.90;;;;;;5023627;28;20791;-77
2022/09/11 05:06:16;;;;;;;71.23;26.10;;;13.60;99.90;;;;;;5022989;28;20290;-76
2022/09/11 05:08:45;;;;;;;79.13;26.90;;;13.50;99.90;;;;;;5019205;28;20223;-77
2022/09/11 05:11:13;;;;;;;69.67;25.57;;;13.50;99.90;;;;;;5024738;28;20567;-77
2022/09/11 05:13:41;;;;;;;74.40;24.93;;;13.60;99.90;;;;;;5025675;28;20208;-77
2022/09/11 05:16:09;;;;;;;56.50;23.00;;;13.50;99.90;;;;;;5025486;28;20295;-76
2022/09/11 05:18:38;;;;;;;61.20;23.27;;;13.50;99.90;;;;;;5021090;28;20223;-77
2022/09/11 05:21:07;;;;;;;65.60;25.10;;;13.50;99.90;;;;;;5025229;28;20207;-76
2022/09/11 05:23:34;;;;;;;67.47;24.97;;;13.50;99.90;;;;;;5022166;28;20734;-76
2022/09/11 05:26:04;;;;;;;65.47;25.20;;;13.50;99.90;;;;;;5025368;28;20199;-77
2022/09/11 05:28:32;;;;;;;63.33;24.53;;;13.60;99.90;;;;;;5025836;28;20231;-77
2022/09/11 05:31:01;;;;;;;63.63;24.20;;;13.70;99.90;;;;;;5024927;28;20199;-75
2022/09/11 05:33:28;;;;;;;66.20;24.67;;;13.80;99.90;;;;;;5022405;28;20219;-75
2022/09/11 05:36:03;;;;;;;66.67;25.23;;;14.00;99.90;;;;;;5019087;28;20279;-77
2022/09/11 05:38:29;;;;;;;69.63;26.10;;;14.10;99.90;;;;;;5017099;28;20219;-77
2022/09/11 05:40:56;;;;;;;56.33;23.37;;;14.30;99.90;;;;;;5020622;28;20211;-78
2022/09/11 05:43:25;;;;;;;60.83;24.03;;;14.50;99.90;;;;;;5023080;28;20196;-77
2022/09/11 05:45:55;;;;;;;61.10;27.17;;;14.60;99.90;;;;;;5024922;28;20211;-76
2022/09/11 05:48:23;;;;;;;62.00;26.93;;;14.70;99.90;;;;;;5017652;28;20797;-78
2022/09/11 05:50:53;;;;;;;53.13;23.60;;;14.90;99.90;;;;;;5025883;28;20576;-77
2022/09/11 05:53:20;;;;;;;53.80;24.03;;;15.10;99.90;;;;;;5026509;28;20218;-77
2022/09/11 05:55:47;;;;;;;47.27;22.80;;;15.30;99.90;;;;;;5027952;28;20299;-77
2022/09/11 05:58:16;;;;;;;50.37;24.77;;;15.50;99.90;;;;;;5027543;28;20216;-77
2022/09/11 06:00:45;;;;;;;49.00;22.73;;;15.50;99.90;;;;;;5024081;28;20254;-78
2022/09/11 06:03:12;;;;;;;48.47;23.43;;;15.50;99.90;;;;;;5026039;28;20207;-78
2022/09/11 06:05:39;;;;;;;47.77;22.30;;;15.50;99.90;;;;;;5018148;28;20203;-77
2022/09/11 06:08:06;;;;;;;53.93;24.37;;;15.40;99.90;;;;;;5030201;28;20234;-78
2022/09/11 06:10:33;;;;;;;53.47;23.83;;;15.40;99.90;;;;;;5031073;28;20199;-76
2022/09/11 06:12:59;;;;;;;53.43;24.80;;;15.40;99.90;;;;;;5027739;28;20210;-77
2022/09/11 06:15:26;;;;;;;61.07;26.43;;;15.60;99.90;;;;;;5032499;28;20204;-77
2022/09/11 06:17:55;;;;;;;60.23;26.30;;;15.70;99.90;;;;;;5028051;28;20214;-78
2022/09/11 06:20:22;;;;;;;60.40;27.13;;;15.90;99.90;;;;;;5028447;28;20202;-77
2022/09/11 06:22:49;;;;;;;69.47;29.40;;;;;;;;;;5033623;28;20206;-78
2022/09/11 06:25:16;;;;;;;57.83;27.37;;;;;;;;;;5026603;28;20207;-76
2022/09/11 06:27:44;;;;;;;60.10;27.10;;;;;;;;;;5027245;28;20630;-77
2022/09/11 06:30:12;;;;;;;56.83;26.20;;;;;;;;;;5028919;28;20198;-78
2022/09/11 06:32:39;;;;;;;59.80;26.57;;;;;;;;;;5027505;28;20203;-78
2022/09/11 06:35:09;;;;;;;62.87;27.77;;;;;;;;;;5026710;28;20203;-77
2022/09/11 06:37:36;;;;;;;67.30;28.50;;;;;;;;;;5025919;28;20305;-76
2022/09/11 06:40:03;;;;;;;55.83;25.60;;;;;;;;;;5026006;28;20200;-77
2022/09/11 06:42:30;;;;;;;50.97;24.87;;;;;;;;;;5026246;28;20200;-78
2022/09/11 06:44:57;;;;;;;52.13;24.93;;;;;;;;;;5032179;28;20208;-77
2022/09/11 06:47:24;;;;;;;46.77;24.47;;;;;;;;;;5028124;28;21210;-77
2022/09/11 06:49:52;;;;;;;44.37;21.63;;;;;;;;;;5029085;28;20219;-78
2022/09/11 06:52:20;;;;;;;47.60;24.83;;;;;;;;;;5027131;28;20204;-76
2022/09/11 06:54:49;;;;;;;44.47;23.77;;;;;;;;;;5032095;28;20226;-76
2022/09/11 06:57:16;;;;;;;43.33;23.60;;;;;;;;;;5024617;28;20227;-77
2022/09/11 06:59:43;;;;;;;40.13;23.20;;;;;;;;;;5026887;28;20204;-76
2022/09/11 07:02:10;;;;;;;40.57;22.13;;;;;;;;;;5027377;28;20207;-76
2022/09/11 07:04:38;;;;;;;41.90;22.17;;;;;;;;;;5024096;28;20214;-76
2022/09/11 07:07:05;;;;;;;41.00;22.03;;;;;;;;;;5031465;28;20203;-76
2022/09/11 07:09:33;;;;;;;42.97;22.07;;;;;;;;;;5027015;28;20246;-78
2022/09/11 07:12:00;;;;;;;42.10;23.07;;;;;;;;;;5027211;28;20203;-76
2022/09/11 07:14:27;;;;;;;42.23;23.17;;;;;;;;;;5027020;28;20208;-77
2022/09/11 07:16:57;;;;;;;41.17;22.67;;;;;;;;;;5023245;28;20560;-77
2022/09/11 07:19:24;;;;;;;45.97;23.13;;;;;;;;;;5026799;28;20203;-76
2022/09/11 07:21:51;;;;;;;47.63;23.50;;;;;;;;;;5027179;28;20211;-78
2022/09/11 07:24:19;;;;;;;40.70;22.27;;;;;;;;;;5025096;28;20202;-77
2022/09/11 07:26:48;;;;;;;49.43;22.70;;;;;;;;;;5029136;28;20218;-77
2022/09/11 07:29:17;;;;;;;44.10;23.57;;;;;;;;;;5026127;28;20310;-75
2022/09/11 07:31:45;;;;;;;46.60;22.33;;;;;;;;;;5026874;28;20203;-77
2022/09/11 07:34:12;;;;;;;46.43;21.47;;;;;;;;;;5022222;28;20207;-74
2022/09/11 07:36:40;;;;;;;43.63;21.73;;;;;;;;;;5010399;28;20215;-76
2022/09/11 07:39:07;;;;;;;40.60;20.73;;;;;;;;;;5003123;28;20793;-76
2022/09/11 07:41:35;;;;;;;38.60;19.97;;;;;;;;;;5014180;28;20789;-77
2022/09/11 07:44:05;;;;;;;41.60;20.77;;;;;;;;;;5023271;28;20214;-77
2022/09/11 07:46:32;;;;;;;39.13;19.27;;;;;;;;;;5026289;28;20746;-76
2022/09/11 07:49:00;;;;;;;35.83;19.97;;;;;;;;;;5026170;28;20223;-77
2022/09/11 07:51:28;;;;;;;37.93;19.40;;;;;;;;;;5027312;28;20254;-78
2022/09/11 07:53:58;;;;;;;33.53;17.40;;;;;;;;;;5026808;28;20200;-77
2022/09/11 07:56:26;;;;;;;36.03;18.23;;;;;;;;;;5030392;28;20204;-77
2022/09/11 07:58:54;;;;;;;29.30;16.77;;;;;;;;;;5031214;28;20254;-76
2022/09/11 08:01:24;;;;;;;31.00;17.97;;;;;;;;;;5030569;28;20212;-76
2022/09/11 08:03:55;;;;;;;31.20;16.80;;;;;;;;;;5030183;28;20205;-77
2022/09/11 08:06:25;;;;;;;29.63;16.63;;;;;;;;;;5027961;28;20619;-78
2022/09/11 08:08:53;;;;;;;26.77;16.63;;;;;;;;;;5034650;28;20693;-77
2022/09/11 08:11:21;;;;;;;29.67;16.47;;;;;;;;;;5025566;28;20346;-77
2022/09/11 08:13:49;;;;;;;27.30;16.20;;;;;;;;;;5029119;28;20203;-77
2022/09/11 08:16:16;;;;;;;26.67;16.40;;;;;;;;;;5023884;28;20248;-76
2022/09/11 08:18:45;;;;;;;24.87;16.03;;;;;;;;;;5028921;28;20222;-77
2022/09/11 08:21:12;;;;;;;28.30;15.67;;;;;;;;;;5028185;28;20239;-76
2022/09/11 08:23:40;;;;;;;31.13;16.53;;;;;;;;;;5021029;28;20230;-78
2022/09/11 08:26:08;;;;;;;27.47;14.77;;;;;;;;;;5025818;28;20212;-75
2022/09/11 08:28:35;;;;;;;28.17;16.07;;;;;;;;;;5027947;28;20250;-77
2022/09/11 08:31:03;;;;;;;26.40;14.97;;;;;;;;;;5023632;28;20200;-76
2022/09/11 08:33:31;;;;;;;23.17;14.33;;;;;;;;;;5018701;28;20206;-77
2022/09/11 08:36:01;;;;;;;22.93;14.03;;;;;;;;;;5025024;28;20276;-77
2022/09/11 08:38:28;;;;;;;22.63;13.83;;;;;;;;;;5023974;28;20304;-77
2022/09/11 08:40:57;;;;;;;22.90;13.30;;;;;;;;;;5019584;28;20310;-77
2022/09/11 08:43:29;;;;;;;22.90;12.30;;;;;;;;;;5028598;28;20690;-77
2022/09/11 08:45:59;;;;;;;24.27;13.67;;;;;;;;;;5022817;28;20563;-76
2022/09/11 08:48:30;;;;;;;24.60;14.13;;;;;;;;;;5016924;28;20460;-76
2022/09/11 08:50:57;;;;;;;27.53;13.80;;;;;;;;;;5019614;28;20211;-77
2022/09/11 08:53:27;;;;;;;29.43;15.80;;;;;;;;;;5022453;28;20212;-77
2022/09/11 08:55:59;;;;;;;24.47;13.93;;;;;;;;;;5018999;28;20314;-77
2022/09/11 08:58:29;;;;;;;26.93;14.03;;;;;;;;;;5019546;28;20721;-77
2022/09/11 09:00:59;;;;;;;23.53;13.43;;;;;;;;;;5021601;28;20208;-77
2022/09/11 09:03:36;;;;;;;26.67;14.20;;;;;;;;;;5024820;28;20295;-76
2022/09/11 09:06:11;;;;;;;23.87;13.70;;;;;;;;;;5028264;28;20204;-77
2022/09/11 09:08:46;;;;;;;24.77;12.70;;;;;;;;;;5023530;28;20226;-77
2022/09/11 09:11:19;;;;;;;27.83;12.50;;;;;;;;;;5028403;28;20208;-75
2022/09/11 09:13:53;;;;;;;21.27;11.57;;;;;;;;;;5020215;28;20285;-76
2022/09/11 09:16:33;;;;;;;21.13;11.73;;;;;;;;;;5022152;28;20199;-76
2022/09/11 09:19:03;;;;;;;20.87;11.57;;;;;;;;;;5019644;28;20693;-77
2022/09/11 09:21:33;;;;;;;22.63;12.67;;;;;;;;;;5015468;28;20211;-76
2022/09/11 09:24:03;;;;;;;26.57;14.00;;;;;;;;;;5021790;28;20652;-76
2022/09/11 09:26:34;;;;;;;23.03;12.87;;;;;;;;;;5020004;28;20203;-78
2022/09/11 09:29:03;;;;;;;21.80;12.83;;;;;;;;;;5022510;28;20224;-77
2022/09/11 09:31:36;;;;;;;23.17;13.17;;;;;;;;;;5020591;28;20214;-77
2022/09/11 09:34:05;;;;;;;24.43;13.83;;;;;;;;;;5016733;28;20692;-77
2022/09/11 09:36:36;;;;;;;20.80;11.80;;;;;;;;;;5012240;28;20208;-76
2022/09/11 09:39:11;;;;;;;24.37;12.40;;;;;;;;;;5019782;28;20310;-77
2022/09/11 09:41:49;;;;;;;21.83;11.83;;;;;;;;;;5016767;28;20195;-77
2022/09/11 09:44:22;;;;;;;24.43;11.93;;;;;;;;;;5018855;28;20203;-75
2022/09/11 09:46:58;;;;;;;25.40;13.20;;;;;;;;;;5023340;28;20203;-76
2022/09/11 09:49:27;;;;;;;21.83;12.00;;;;;;;;;;5026076;28;20306;-77
2022/09/11 09:51:57;;;;;;;22.00;12.17;;;;;;;;;;5024807;28;20204;-75
2022/09/11 09:54:30;;;;;;;28.13;12.83;;;;;;;;;;5027535;28;20622;-74
2022/09/11 09:56:58;;;;;;;19.70;10.73;;;;;;;;;;5029044;28;20334;-77
2022/09/11 09:59:29;;;;;;;18.47;10.27;;;;;;;;;;5029271;28;20219;-77
2022/09/11 10:01:57;;;;;;;24.70;10.43;;;;;;;;;;5020137;28;20562;-77
2022/09/11 10:04:28;;;;;;;23.70;10.30;;;;;;;;;;5028249;28;20479;-76
2022/09/11 10:07:06;;;;;;;21.37;11.13;;;;;;;;;;5024282;28;20219;-76
2022/09/11 10:09:35;;;;;;;22.87;10.00;;;;;;;;;;5024338;28;20298;-75
2022/09/11 10:12:04;;;;;;;19.73;10.00;;;;;;;;;;5023542;28;20223;-76
2022/09/11 10:14:33;;;;;;;20.00;10.67;;;;;;;;;;5026139;28;20212;-76
2022/09/11 10:17:01;;;;;;;23.13;11.50;;;;;;;;;;5027788;28;20231;-75
2022/09/11 10:19:36;;;;;;;19.87;10.97;;;;;;;;;;5020112;28;20208;-76
2022/09/11 10:22:30;;;;;;;21.00;10.43;;;;;;;;;;5023107;28;20684;-76
2022/09/11 10:25:06;;;;;;;18.57;10.60;;;;;;;;;;4963030;28;20204;-77
2022/09/11 10:27:36;;;;;;;22.97;11.60;;;;;;;;;;5021048;28;20231;-76
2022/09/11 10:30:03;;;;;;;24.27;11.30;;;;;;;;;;5022775;28;20231;-76
2022/09/11 10:32:30;;;;;;;22.50;11.27;;;;;;;;;;5022774;28;20355;-76
2022/09/11 10:34:58;;;;;;;19.33;10.37;;;;;;;;;;5015748;28;20555;-76
2022/09/11 10:37:26;;;;;;;24.83;11.53;;;;;;;;;;5021440;28;20293;-77
2022/09/11 10:39:56;;;;;;;21.43;11.90;;;;;;;;;;5026472;28;20210;-76
2022/09/11 10:42:27;;;;;;;22.80;12.23;;;;;;;;;;5024662;28;20199;-76
2022/09/11 10:44:56;;;;;;;22.90;12.13;;;;;;;;;;5022582;28;20211;-76
2022/09/11 10:47:24;;;;;;;22.03;11.47;;;;;;;;;;5021595;28;20223;-75
2022/09/11 10:50:10;;;;;;;22.67;12.07;;;;;;;;;;5024924;28;20220;-77
2022/09/11 10:52:47;;;;;;;22.30;11.10;;;;;;;;;;5029576;28;20203;-77
2022/09/11 10:55:14;;;;;;;22.33;11.17;;;;;;;;;;5026086;28;20714;-76
2022/09/11 10:57:44;;;;;;;24.67;10.00;;;;;;;;;;5027833;28;20230;-77
2022/09/11 11:00:14;;;;;;;22.37;10.87;;;;;;;;;;5023736;28;20196;-76
2022/09/11 11:02:43;;;;;;;21.57;10.33;;;;;;;;;;5024680;28;20321;-75
2022/09/11 11:05:17;;;;;;;19.33;9.93;;;;;;;;;;5030343;28;20307;-75
2022/09/11 11:07:57;;;;;;;18.73;9.97;;;;;;;;;;5028530;28;21970;-76
2022/09/11 11:10:31;;;;;;;19.27;10.00;;;;;;;;;;5027809;28;20269;-75
2022/09/11 11:13:08;;;;;;;21.43;10.00;;;;;;;;;;5027933;28;20217;-75
2022/09/11 11:15:40;;;;;;;19.80;10.43;;;;;;;;;;5027797;28;20577;-75
2022/09/11 11:18:20;;;;;;;21.63;10.00;;;;;;;;;;5025351;28;20307;-76
2022/09/11 11:20:54;;;;;;;18.07;9.60;;;;;;;;;;5025007;28;20746;-75
2022/09/11 11:23:36;;;;;;;16.57;9.00;;;;;;;;;;5021130;28;20588;-75
2022/09/11 11:26:18;;;;;;;35.23;13.77;;;;;;;;;;5024773;28;20204;-76
2022/09/11 11:28:57;;;;;;;15.17;8.20;;;;;;;;;;5025118;28;20235;-76
2022/09/11 11:31:32;;;;;;;18.83;10.13;;;;;;;;;;5022604;28;20647;-77
2022/09/11 11:34:05;;;;;;;19.37;9.73;;;;;;;;;;5022960;28;20203;-75
2022/09/11 11:36:36;;;;;;;15.73;8.33;;;;;;;;;;5023126;28;20199;-75
2022/09/11 11:39:08;;;;;;;13.10;6.80;;;;;;;;;;5024300;28;20227;-75
2022/09/11 11:41:40;;;;;;;16.63;7.73;;;;;;;;;;5024333;28;20207;-75
2022/09/11 11:44:12;;;;;;;18.77;8.43;;;;;;;;;;5025809;28;20208;-75
2022/09/11 11:46:40;;;;;;;21.73;9.70;;;;;;;;;;5025905;28;20694;-76
2022/09/11 11:49:11;;;;;;;17.07;8.80;;;;;;;;;;5024292;28;20232;-75
2022/09/11 11:51:42;;;;;;;20.40;9.17;;;;;;;;;;5025419;28;20199;-75
2022/09/11 11:54:13;;;;;;;23.70;10.20;;;;;;;;;;5022746;28;20274;-76
2022/09/11 11:56:43;;;;;;;22.90;9.83;;;;;;;;;;5023008;28;20207;-75
2022/09/11 11:59:15;;;;;;;21.23;10.13;;;;;;;;;;5022261;28;20302;-77
2022/09/11 12:01:46;;;;;;;19.07;9.70;;;;;;;;;;5017534;28;20216;-76
2022/09/11 12:04:18;;;;;;;21.43;9.03;;;;;;;;;;5020266;28;20204;-76
2022/09/11 12:06:45;;;;;;;21.90;9.80;;;;;;;;;;5023356;28;20285;-78
2022/09/11 12:09:16;;;;;;;20.33;9.67;;;;;;;;;;5029588;28;20223;-77
2022/09/11 12:11:44;;;;;;;17.03;8.43;;;;;;;;;;5023697;28;20208;-75
2022/09/11 12:14:25;;;;;;;17.83;8.43;;;;;;;;;;5017093;28;20204;-75
2022/09/11 12:16:52;;;;;;;17.77;9.03;;;;;;;;;;5016123;28;22422;-76
2022/09/11 12:19:21;;;;;;;14.53;8.00;;;;;;;;;;5018946;28;20752;-76
2022/09/11 12:22:13;;;;;;;16.03;8.70;;;;;;;;;;5016362;28;20206;-78
2022/09/11 12:25:04;;;;;;;19.03;8.80;;;;;;;;;;5021670;28;20203;-75
2022/09/11 12:27:50;;;;;;;17.83;8.90;;;;;;;;;;4996500;28;20309;-77
2022/09/11 12:30:22;;;;;;;16.27;8.83;;;;;;;;;;5020803;28;20723;-76
2022/09/11 12:32:50;;;;;;;17.03;7.90;;;;;;;;;;5025487;28;20584;-75
2022/09/11 12:35:20;;;;;;;17.27;8.13;;;;;;;;;;5022231;28;20211;-75
2022/09/11 12:37:49;;;;;;;19.80;9.43;;;;;;;;;;5021648;28;20228;-76
2022/09/11 12:40:19;;;;;;;18.10;9.33;;;;;;;;;;5021242;28;20206;-75
2022/09/11 12:42:48;;;;;;;18.23;8.03;;;;;;;;;;5023692;28;20281;-75
2022/09/11 12:45:31;;;;;;;18.10;8.63;;;;;;;;;;5026207;28;20208;-75
2022/09/11 12:48:03;;;;;;;14.77;8.60;;;;;;;;;;5024286;28;20235;-76
2022/09/11 12:50:30;;;;;;;16.03;8.27;;;;;;;;;;5025010;28;20220;-77
2022/09/11 12:53:01;;;;;;;17.03;8.27;;;;;;;;;;5025205;28;20207;-76
2022/09/11 12:55:38;;;;;;;15.73;8.13;;;;;;;;;;5028258;28;20303;-76
2022/09/11 12:58:06;;;;;;;15.17;8.00;;;;;;;;;;5020057;28;20226;-76
2022/09/11 13:00:37;;;;;;;16.57;7.93;;;;;;;;;;5023106;28;21041;-76
2022/09/11 13:03:05;;;;;;;14.10;7.77;;;;;;;;;;5026365;28;20542;-76
2022/09/11 13:05:36;;;;;;;18.07;8.77;;;;;;;;;;5026630;28;20210;-76
2022/09/11 13:08:05;;;;;;;18.63;8.83;;;;;;;;;;5022304;28;20733;-76
2022/09/11 13:10:35;;;;;;;17.03;8.80;;;;;;;;;;5021823;28;20274;-76
2022/09/11 13:13:04;;;;;;;16.83;9.30;;;;;;;;;;5023289;28;20207;-76
2022/09/11 13:15:40;;;;;;;17.40;8.30;;;;;;;;;;5023348;28;20204;-75
2022/09/11 13:18:29;;;;;;;17.73;8.07;;;;;;;;;;5021715;28;20223;-76
2022/09/11 13:20:59;;;;;;;16.33;7.37;;;;;;;;;;5023769;28;20208;-78
2022/09/11 13:23:27;;;;;;;13.00;6.93;;;;;;;;;;5025707;28;20212;-77
2022/09/11 13:25:56;;;;;;;17.10;7.33;;;;;;;;;;5028157;28;20227;-77
2022/09/11 13:28:24;;;;;;;16.20;7.60;;;;;;;;;;5026675;28;20224;-77
2022/09/11 13:30:54;;;;;;;13.57;6.80;;;;;;;;;;5023715;28;20219;-77
2022/09/11 13:33:24;;;;;;;15.00;6.40;;;;;;;;;;5026642;28;20230;-76
2022/09/11 13:35:53;;;;;;;13.77;7.00;;;;;;;;;;5025464;28;20204;-77
2022/09/11 13:38:23;;;;;;;12.33;6.10;;;;;;;;;;5025435;28;20755;-77
2022/09/11 13:40:53;;;;;;;9.73;6.10;;;;;;;;;;5028237;28;20211;-77
2022/09/11 13:43:22;;;;;;;9.97;5.90;;;;;;;;;;5025908;28;20204;-77
2022/09/11 13:45:49;;;;;;;11.10;6.00;;;;;;;;;;5028279;28;20200;-75
2022/09/11 13:48:23;;;;;;;12.00;5.43;;;;;;;;;;5028340;28;20293;-77
2022/09/11 13:50:51;;;;;;;11.37;5.63;;;;;;;;;;5030081;28;20208;-77
2022/09/11 13:53:18;;;;;;;12.17;6.43;;;;;;;;;;5030867;28;20286;-77
2022/09/11 13:55:47;;;;;;;10.93;6.20;;;;;;;;;;5023111;28;20208;-75
2022/09/11 13:58:21;;;;;;;13.27;6.47;;;;;;;;;;5025017;28;20619;-77
2022/09/11 14:03:36;;;;;;;12.33;6.00;;;;;;;;;;5021849;28;20626;-77
2022/09/11 14:06:04;;;;;;;15.67;6.30;;;;;;;;;;5023703;28;20290;-76
2022/09/11 14:08:33;;;;;;;13.47;6.37;;;;;;;;;;5022614;28;20219;-77
2022/09/11 14:11:03;;;;;;;9.03;5.83;;;;;;;;;;5022864;28;20219;-76
2022/09/11 14:13:31;;;;;;;13.97;5.83;;;;;;;;;;5027478;28;20210;-77